• Join FlightAware (Why Join?)
  • Login
  • US Flag 
04:27AM EDT


 

Airport Tracker/Info


-or-


 

Live Flight TrackerFlight Track Log ✈ GLA34K ✈ 16-Aug-2013 ✈ KDIK - KDEN

Flight Track Log - Related Links

Times and Time Zones

All times are in EDT time to prevent confusion due to time zone crossing. See the GLA34K flight status page for this flight to view local times or setup timezone preferences in your user account.

Time Position Orientation Groundspeed Altitude Reporting Facility
EDT Latitude Longitude Course Direction KTS MPH feet Rate Location/Type
02:02PM 46.6442 -102.7967 184° South 189 217 7,900  Level Minneapolis Center
02:03PM 46.3284 -102.9431 187° South  Level Estimated
02:03PM 46.5969 -102.7983 181° South 196 226 9,100  Level Minneapolis Center
02:04PM 46.2503 -102.9664 183° South  Level Estimated
02:04PM 46.5192 -102.8031 182° South 218 251 10,800  Level Minneapolis Center
02:05PM 46.1772 -102.9200 156° South  Level FlightAware Approximate
02:05PM 46.4489 -102.8117 185° South 239 275 12,200  Level Minneapolis Center
02:06PM 46.0992 -102.9441 184° South  Level Estimated
02:06PM 46.3800 -102.8194 184° South 247 284 13,500  Level Minneapolis Center
02:07PM 46.3117 -102.8253 183° South 247 284 14,600 1,200 Climbing Minneapolis Center
02:08PM 46.2294 -102.8322 183° South 246 283 16,000 1,200 Climbing Minneapolis Center
02:09PM 46.1622 -102.8347 181° South 245 282 17,100 960 Climbing Minneapolis Center
02:10PM 46.0964 -102.8367 181° South 241 277 18,100 900 Climbing Minneapolis Center
02:11PM 46.0308 -102.8372 180° South 237 273 19,000 780 Climbing Minneapolis Center
02:12PM 45.9656 -102.8394 181° South 236 272 19,800 720 Climbing Minneapolis Center
02:13PM 45.8969 -102.8414 181° South 242 278 20,600 840 Climbing Minneapolis Center
02:14PM 45.8167 -102.8408 180° South 242 278 21,600 660 Climbing Minneapolis Center
02:15PM 45.7492 -102.8392 179° South 242 278 22,200 480 Climbing Minneapolis Center
02:16PM 45.6639 -102.8392 180° South 252 290 22,800 480 Climbing Minneapolis Center
02:17PM 45.6056 -102.8394 180° South 257 296 23,300 540 Climbing Minneapolis Center
02:18PM 45.5111 -102.8394 180° South 260 299 24,000 540 Climbing Minneapolis Center
02:19PM 45.4392 -102.8381 179° South 260 299 24,500 480 Climbing Minneapolis Center
02:20PM 45.3664 -102.8389 180° South 261 300 25,000 240 Climbing Minneapolis Center
02:21PM 45.2906 -102.8386 180° South 268 308 25,000  Level Minneapolis Center
02:23PM 45.1950 -102.8403 181° South 281 323 25,000  Level Minneapolis Center
02:24PM 45.1131 -102.8417 181° South 290 334 25,000  Level Minneapolis Center
02:25PM 45.0325 -102.8472 183° South 291 335 25,000  Level Minneapolis Center
02:26PM 44.9536 -102.8592 186° South 288 331 25,000  Level Minneapolis Center
02:27PM 44.8572 -102.8717 185° South 285 328 25,000  Level Denver Center
02:28PM 44.7789 -102.8831 186° South 285 328 25,000  Level Denver Center
02:29PM 44.6981 -102.8953 186° South 285 328 25,000  Level Denver Center
02:30PM 44.6211 -102.9047 185° South 285 328 25,000  Level Denver Center
02:31PM 44.5264 -102.9194 186° South 285 328 25,000  Level Denver Center
02:32PM 44.4467 -102.9306 186° South 285 328 25,000  Level Denver Center
02:33PM 44.3689 -102.9414 186° South 286 329 25,000  Level Denver Center
02:34PM 44.2897 -102.9547 187° South 287 330 25,000  Level Denver Center
02:35PM 44.2111 -102.9697 188° South 287 330 25,000  Level Denver Center
02:36PM 44.1306 -102.9831 187° South 288 331 25,000  Level Denver Center
02:37PM 44.0417 -102.9997 188° South 288 331 25,000  Level Denver Center
02:38PM 43.9656 -103.0131 187° South 288 331 25,000  Level Denver Center
02:39PM 43.8767 -103.0306 188° South 288 331 25,000  Level Denver Center
02:40PM 43.8017 -103.0450 188° South 285 328 25,000  Level Denver Center
02:41PM 43.7117 -103.0614 187° South 290 334 25,000  Level Denver Center
02:42PM 43.6342 -103.0756 188° South 293 337 25,000  Level Denver Center
02:43PM 43.5453 -103.0942 189° South 291 335 25,000  Level Denver Center
02:44PM 43.4683 -103.1094 188° South 291 335 25,000  Level Denver Center
02:45PM 43.4039 -103.1225 188° South 293 337 25,000  Level Denver Center
02:47PM 43.3014 -103.1444 189° South 292 336 25,000  Level Denver Center
02:48PM 43.1986 -103.1661 189° South 292 336 25,000  Level Denver Center
02:49PM 43.1225 -103.1808 188° South 290 334 25,000  Level Denver Center
02:50PM 43.0319 -103.1983 188° South 292 336 25,000  Level Denver Center
02:51PM 42.9550 -103.2150 189° South 292 336 25,000  Level Denver Center
02:52PM 42.8653 -103.2317 188° South 291 335 25,000  Level Denver Center
02:53PM 42.7875 -103.2478 189° South 293 337 25,000  Level Denver Center
02:54PM 42.7236 -103.2603 188° South 293 337 25,000  Level Denver Center
02:55PM 42.6200 -103.2817 189° South 293 337 25,000  Level Denver Center
02:56PM 42.5297 -103.3003 189° South 293 337 25,000  Level Denver Center
02:57PM 42.4525 -103.3164 189° South 293 337 25,000  Level Denver Center
02:58PM 42.3494 -103.3397 189° South 294 338 25,000  Level Denver Center
02:59PM 42.2725 -103.3611 192° South 294 338 25,000  Level Denver Center
03:00PM 42.1703 -103.3886 191° South 293 337 25,000  Level Denver Center
03:02PM 42.0944 -103.4144 194° South 292 336 25,000  Level Denver Center
03:03PM 42.0183 -103.4425 195° South 293 337 25,000  Level Denver Center
03:04PM 41.9294 -103.4733 194° South 295 339 25,000  Level Denver Center
03:05PM 41.8414 -103.5000 193° South 292 336 25,000  Level Denver Center
03:06PM 41.7636 -103.5222 192° South 296 341 25,000  Level Denver Center
03:07PM 41.6722 -103.5294 183° South 295 339 25,000  Level Denver Center
03:08PM 41.5936 -103.5350 183° South 296 341 25,000  Level Denver Center
03:09PM 41.5028 -103.5428 184° South 293 337 25,000  Level Denver Center
03:10PM 41.4236 -103.5586 189° South 297 342 25,000 -300 Level Denver Center
03:11PM 41.3328 -103.5736 187° South 295 339 24,500 -1,020 Descending Denver Center
03:12PM 41.2550 -103.5900 189° South 295 339 22,900 -1,860 Descending Denver Center
03:13PM 41.1642 -103.6075 188° South 295 339 20,700 -1,980 Descending Denver Center
03:14PM 41.0869 -103.6208 187° South 292 336 18,900 -1,620 Descending Denver Center
03:15PM 40.9989 -103.6361 187° South 286 329 17,400 -1,260 Descending Denver Center
03:16PM 40.9269 -103.6478 187° South 285 328 16,300 -780 Descending Denver Center
03:17PM 40.8458 -103.6586 186° South 291 335 15,900 -240 Descending Denver Center
03:18PM 40.7669 -103.6697 186° South 286 329 15,900  Level Denver Center
03:19PM 40.6694 -103.6836 186° South 292 336 16,000  Climbing Denver Center
03:20PM 40.5914 -103.6967 187° South 287 330 16,000 -120 Level Denver Center
03:21PM 40.5222 -103.7419 206° Southwest 284 327 15,800 -600 Descending Denver Center
03:22PM 40.4669 -103.8122 224° Southwest 277 319 14,800 -1,260 Descending Denver Center
03:23PM 40.4083 -103.8983 228° Southwest 281 323 13,200 -840 Descending Denver Center
03:24PM 40.3656 -103.9753 234° Southwest 259 298 13,100 -120 Descending Denver Center
03:25PM 40.3244 -104.0550 236° Southwest 248 285 13,000  Descending Denver Center
03:26PM 40.2917 -104.1369 242° Southwest 255 293 13,100 -360 Climbing Denver Center
03:28PM 40.2564 -104.2225 242° Southwest 250 288 12,200 -540 Descending Denver Center
03:29PM 40.2186 -104.3206 243° Southwest 247 284 12,000 -540 Descending Denver Center
03:30PM 40.1869 -104.4031 243° Southwest 253 291 11,200 -1,140 Descending Denver Center
03:31PM 40.1547 -104.4953 245° Southwest 254 292 9,700 -1,440 Descending Denver Center
03:32PM 40.1167 -104.5833 241° Southwest 248 285 8,100 -1,260 Descending Denver TRACON
03:33PM 40.0500 -104.6333 210° Southwest 240 276 7,000 -540 Descending Denver TRACON
03:34PM 40.0000 -104.6667 207° Southwest 220 253 7,100 -300 Climbing Denver TRACON
03:35PM 39.9481 -104.6869 197° South 202 232 6,500 -660 Descending Denver Center
03:36PM 39.9061 -104.6872 180° South 152 175 5,800 -720 Descending Denver Center
03:38PM 39.8617 -104.6732 229° Southwest  Level Estimated
03:45PM 39.8617 -104.6732 229° Southwest  Level Estimated
03:46PM 39.8617 -104.6732 229° Southwest  Level Estimated
03:47PM 39.8617 -104.6732 229° Southwest  Level Estimated